sensor_id;sensor_type;location;lat;lon;timestamp;temperature;humidity
4090;DHT22;2059;48.538;12.146;2022-07-23T00:04:41;26.60;80.90
4090;DHT22;2059;48.538;12.146;2022-07-23T00:09:42;26.20;83.70
4090;DHT22;2059;48.538;12.146;2022-07-23T00:14:44;26.40;83.50
4090;DHT22;2059;48.538;12.146;2022-07-23T00:19:47;26.40;83.00
4090;DHT22;2059;48.538;12.146;2022-07-23T00:24:49;26.50;81.30
4090;DHT22;2059;48.538;12.146;2022-07-23T00:29:51;26.50;81.10
4090;DHT22;2059;48.538;12.146;2022-07-23T00:34:54;26.50;81.00
4090;DHT22;2059;48.538;12.146;2022-07-23T00:39:56;26.60;81.50
4090;DHT22;2059;48.538;12.146;2022-07-23T00:44:58;26.50;81.50
4090;DHT22;2059;48.538;12.146;2022-07-23T00:50:01;26.50;81.40
4090;DHT22;2059;48.538;12.146;2022-07-23T00:55:05;26.50;81.40
4090;DHT22;2059;48.538;12.146;2022-07-23T01:00:09;26.50;81.30
4090;DHT22;2059;48.538;12.146;2022-07-23T01:05:13;26.40;82.50
4090;DHT22;2059;48.538;12.146;2022-07-23T01:10:15;26.50;82.90
4090;DHT22;2059;48.538;12.146;2022-07-23T01:15:33;26.40;83.00
4090;DHT22;2059;48.538;12.146;2022-07-23T01:20:37;26.30;83.30
4090;DHT22;2059;48.538;12.146;2022-07-23T01:25:47;26.20;84.40
4090;DHT22;2059;48.538;12.146;2022-07-23T01:30:49;26.10;85.00
4090;DHT22;2059;48.538;12.146;2022-07-23T01:35:51;26.10;84.70
4090;DHT22;2059;48.538;12.146;2022-07-23T01:40:54;26.00;85.00
4090;DHT22;2059;48.538;12.146;2022-07-23T01:45:56;25.90;85.80
4090;DHT22;2059;48.538;12.146;2022-07-23T01:50:58;25.80;86.70
4090;DHT22;2059;48.538;12.146;2022-07-23T01:56:01;25.70;87.10
4090;DHT22;2059;48.538;12.146;2022-07-23T02:01:03;25.40;86.00
4090;DHT22;2059;48.538;12.146;2022-07-23T02:06:05;25.50;84.50
4090;DHT22;2059;48.538;12.146;2022-07-23T02:11:08;25.50;84.80
4090;DHT22;2059;48.538;12.146;2022-07-23T02:16:10;25.20;85.90
4090;DHT22;2059;48.538;12.146;2022-07-23T02:21:12;24.90;84.40
4090;DHT22;2059;48.538;12.146;2022-07-23T02:26:15;24.60;85.00
4090;DHT22;2059;48.538;12.146;2022-07-23T02:31:17;24.60;84.90
4090;DHT22;2059;48.538;12.146;2022-07-23T02:36:18;24.60;84.20
4090;DHT22;2059;48.538;12.146;2022-07-23T02:41:22;24.50;84.70
4090;DHT22;2059;48.538;12.146;2022-07-23T02:51:26;23.80;86.80
4090;DHT22;2059;48.538;12.146;2022-07-23T02:56:29;23.80;88.40
4090;DHT22;2059;48.538;12.146;2022-07-23T03:01:31;23.60;90.20
4090;DHT22;2059;48.538;12.146;2022-07-23T03:06:33;23.40;91.50
4090;DHT22;2059;48.538;12.146;2022-07-23T03:11:36;23.10;92.40
4090;DHT22;2059;48.538;12.146;2022-07-23T03:16:38;23.00;93.60
4090;DHT22;2059;48.538;12.146;2022-07-23T03:21:39;22.80;94.20
4090;DHT22;2059;48.538;12.146;2022-07-23T03:26:42;22.70;94.80
4090;DHT22;2059;48.538;12.146;2022-07-23T03:31:44;22.80;95.60
4090;DHT22;2059;48.538;12.146;2022-07-23T03:36:46;22.70;97.10
4090;DHT22;2059;48.538;12.146;2022-07-23T03:41:49;22.60;97.30
4090;DHT22;2059;48.538;12.146;2022-07-23T03:46:51;22.50;97.70
4090;DHT22;2059;48.538;12.146;2022-07-23T03:51:53;22.30;98.40
4090;DHT22;2059;48.538;12.146;2022-07-23T03:56:56;22.40;98.80
4090;DHT22;2059;48.538;12.146;2022-07-23T04:01:57;22.40;98.30
4090;DHT22;2059;48.538;12.146;2022-07-23T04:06:59;22.30;99.60
4090;DHT22;2059;48.538;12.146;2022-07-23T04:12:03;22.40;99.80
4090;DHT22;2059;48.538;12.146;2022-07-23T04:17:05;22.30;99.90
4090;DHT22;2059;48.538;12.146;2022-07-23T04:22:07;22.50;98.70
4090;DHT22;2059;48.538;12.146;2022-07-23T04:27:10;22.30;98.30
4090;DHT22;2059;48.538;12.146;2022-07-23T04:32:12;22.40;97.70
4090;DHT22;2059;48.538;12.146;2022-07-23T04:37:14;22.50;97.40
4090;DHT22;2059;48.538;12.146;2022-07-23T04:42:17;22.60;98.20
4090;DHT22;2059;48.538;12.146;2022-07-23T04:47:19;22.60;98.50
4090;DHT22;2059;48.538;12.146;2022-07-23T04:52:21;22.60;98.90
4090;DHT22;2059;48.538;12.146;2022-07-23T04:57:24;22.60;99.00
4090;DHT22;2059;48.538;12.146;2022-07-23T05:02:25;22.60;99.50
4090;DHT22;2059;48.538;12.146;2022-07-23T05:07:27;22.50;99.80
4090;DHT22;2059;48.538;12.146;2022-07-23T05:12:30;22.40;99.90
4090;DHT22;2059;48.538;12.146;2022-07-23T05:17:33;22.20;99.90
4090;DHT22;2059;48.538;12.146;2022-07-23T05:22:35;22.50;99.90
4090;DHT22;2059;48.538;12.146;2022-07-23T05:27:38;22.40;99.90
4090;DHT22;2059;48.538;12.146;2022-07-23T05:32:39;22.40;99.90
4090;DHT22;2059;48.538;12.146;2022-07-23T05:37:41;22.50;99.90
4090;DHT22;2059;48.538;12.146;2022-07-23T05:42:44;22.50;99.90
4090;DHT22;2059;48.538;12.146;2022-07-23T05:47:47;22.60;99.90
4090;DHT22;2059;48.538;12.146;2022-07-23T05:52:49;22.90;99.30
4090;DHT22;2059;48.538;12.146;2022-07-23T05:57:52;22.80;99.70
4090;DHT22;2059;48.538;12.146;2022-07-23T06:02:54;22.80;99.90
4090;DHT22;2059;48.538;12.146;2022-07-23T06:07:56;23.00;99.90
4090;DHT22;2059;48.538;12.146;2022-07-23T06:12:59;23.10;99.70
4090;DHT22;2059;48.538;12.146;2022-07-23T06:18:01;23.30;99.40
4090;DHT22;2059;48.538;12.146;2022-07-23T06:23:03;23.40;99.40
4090;DHT22;2059;48.538;12.146;2022-07-23T06:28:06;23.50;99.50
4090;DHT22;2059;48.538;12.146;2022-07-23T06:33:08;23.40;99.40
4090;DHT22;2059;48.538;12.146;2022-07-23T06:38:10;23.50;99.30
4090;DHT22;2059;48.538;12.146;2022-07-23T06:43:13;23.60;99.50
4090;DHT22;2059;48.538;12.146;2022-07-23T06:48:14;23.80;99.90
4090;DHT22;2059;48.538;12.146;2022-07-23T06:53:16;23.80;99.90
4090;DHT22;2059;48.538;12.146;2022-07-23T06:58:19;24.10;99.90
4090;DHT22;2059;48.538;12.146;2022-07-23T07:03:21;24.20;99.80
4090;DHT22;2059;48.538;12.146;2022-07-23T07:08:23;24.30;99.40
4090;DHT22;2059;48.538;12.146;2022-07-23T07:13:26;24.30;99.80
4090;DHT22;2059;48.538;12.146;2022-07-23T07:18:28;24.40;99.40
4090;DHT22;2059;48.538;12.146;2022-07-23T07:23:30;24.30;99.50
4090;DHT22;2059;48.538;12.146;2022-07-23T07:28:33;24.40;99.30
4090;DHT22;2059;48.538;12.146;2022-07-23T07:33:35;24.60;99.20
4090;DHT22;2059;48.538;12.146;2022-07-23T07:38:36;24.30;99.50
4090;DHT22;2059;48.538;12.146;2022-07-23T07:43:40;24.50;99.20
4090;DHT22;2059;48.538;12.146;2022-07-23T07:48:41;24.50;99.50
4090;DHT22;2059;48.538;12.146;2022-07-23T07:53:43;24.60;99.70
4090;DHT22;2059;48.538;12.146;2022-07-23T07:58:46;24.70;99.70
4090;DHT22;2059;48.538;12.146;2022-07-23T08:03:48;25.00;99.90
4090;DHT22;2059;48.538;12.146;2022-07-23T08:08:50;25.10;99.00
4090;DHT22;2059;48.538;12.146;2022-07-23T08:13:53;25.10;98.70
4090;DHT22;2059;48.538;12.146;2022-07-23T08:18:55;25.20;98.60
4090;DHT22;2059;48.538;12.146;2022-07-23T08:23:56;25.30;98.70
4090;DHT22;2059;48.538;12.146;2022-07-23T08:28:59;25.10;97.60
4090;DHT22;2059;48.538;12.146;2022-07-23T08:34:01;25.00;97.50
4090;DHT22;2059;48.538;12.146;2022-07-23T08:39:03;25.10;97.10
4090;DHT22;2059;48.538;12.146;2022-07-23T08:44:08;25.00;97.20
4090;DHT22;2059;48.538;12.146;2022-07-23T08:49:10;25.10;97.20
4090;DHT22;2059;48.538;12.146;2022-07-23T08:54:12;25.00;97.50
4090;DHT22;2059;48.538;12.146;2022-07-23T08:59:16;25.00;97.60
4090;DHT22;2059;48.538;12.146;2022-07-23T09:04:17;24.70;97.80
4090;DHT22;2059;48.538;12.146;2022-07-23T09:09:20;24.70;98.10
4090;DHT22;2059;48.538;12.146;2022-07-23T09:14:38;24.70;98.60
4090;DHT22;2059;48.538;12.146;2022-07-23T09:19:41;24.60;99.30
4090;DHT22;2059;48.538;12.146;2022-07-23T09:25:05;24.60;99.50
4090;DHT22;2059;48.538;12.146;2022-07-23T09:30:09;24.50;99.80
4090;DHT22;2059;48.538;12.146;2022-07-23T09:35:11;24.40;99.90
4090;DHT22;2059;48.538;12.146;2022-07-23T09:40:13;24.40;99.90
4090;DHT22;2059;48.538;12.146;2022-07-23T09:45:19;24.40;99.90
4090;DHT22;2059;48.538;12.146;2022-07-23T09:50:21;24.40;99.90
4090;DHT22;2059;48.538;12.146;2022-07-23T09:55:31;24.40;99.90
4090;DHT22;2059;48.538;12.146;2022-07-23T10:00:37;24.60;99.90
4090;DHT22;2059;48.538;12.146;2022-07-23T10:05:40;25.00;99.90
4090;DHT22;2059;48.538;12.146;2022-07-23T10:10:46;25.60;99.40
4090;DHT22;2059;48.538;12.146;2022-07-23T10:15:50;26.30;98.80
4090;DHT22;2059;48.538;12.146;2022-07-23T10:20:52;26.80;97.40
4090;DHT22;2059;48.538;12.146;2022-07-23T10:25:59;27.20;96.70
4090;DHT22;2059;48.538;12.146;2022-07-23T10:31:19;27.40;96.10
4090;DHT22;2059;48.538;12.146;2022-07-23T10:36:30;27.60;95.30
4090;DHT22;2059;48.538;12.146;2022-07-23T10:41:35;27.70;94.40
4090;DHT22;2059;48.538;12.146;2022-07-23T10:46:54;27.80;94.50
4090;DHT22;2059;48.538;12.146;2022-07-23T10:52:23;27.90;94.40
4090;DHT22;2059;48.538;12.146;2022-07-23T10:57:26;27.90;93.80
4090;DHT22;2059;48.538;12.146;2022-07-23T11:02:30;28.30;94.00
4090;DHT22;2059;48.538;12.146;2022-07-23T11:07:32;28.60;93.10
4090;DHT22;2059;48.538;12.146;2022-07-23T11:12:35;28.60;92.90
4090;DHT22;2059;48.538;12.146;2022-07-23T11:17:57;29.00;92.40
4090;DHT22;2059;48.538;12.146;2022-07-23T11:23:00;29.20;91.20
4090;DHT22;2059;48.538;12.146;2022-07-23T11:28:17;29.30;91.20
4090;DHT22;2059;48.538;12.146;2022-07-23T11:33:22;29.50;90.20
4090;DHT22;2059;48.538;12.146;2022-07-23T11:38:24;29.30;90.10
4090;DHT22;2059;48.538;12.146;2022-07-23T11:43:26;29.20;88.50
4090;DHT22;2059;48.538;12.146;2022-07-23T11:48:30;28.90;88.50
4090;DHT22;2059;48.538;12.146;2022-07-23T11:53:33;28.30;89.70
4090;DHT22;2059;48.538;12.146;2022-07-23T11:58:36;28.00;90.10
4090;DHT22;2059;48.538;12.146;2022-07-23T12:03:49;27.90;90.60
4090;DHT22;2059;48.538;12.146;2022-07-23T12:08:51;28.20;90.20
4090;DHT22;2059;48.538;12.146;2022-07-23T12:13:56;28.30;90.60
4090;DHT22;2059;48.538;12.146;2022-07-23T12:18:59;28.60;90.30
4090;DHT22;2059;48.538;12.146;2022-07-23T12:24:06;29.10;89.60
4090;DHT22;2059;48.538;12.146;2022-07-23T12:29:07;29.30;87.20
4090;DHT22;2059;48.538;12.146;2022-07-23T12:34:15;29.10;88.60
4090;DHT22;2059;48.538;12.146;2022-07-23T12:39:29;29.40;88.50
4090;DHT22;2059;48.538;12.146;2022-07-23T12:44:31;29.30;89.10
4090;DHT22;2059;48.538;12.146;2022-07-23T12:49:36;29.70;87.90
4090;DHT22;2059;48.538;12.146;2022-07-23T12:54:37;29.80;88.00
4090;DHT22;2059;48.538;12.146;2022-07-23T12:59:39;29.50;86.70
4090;DHT22;2059;48.538;12.146;2022-07-23T13:04:42;29.40;87.00
4090;DHT22;2059;48.538;12.146;2022-07-23T13:09:44;29.30;88.20
4090;DHT22;2059;48.538;12.146;2022-07-23T13:14:46;29.40;87.60
4090;DHT22;2059;48.538;12.146;2022-07-23T13:19:49;29.30;88.00
4090;DHT22;2059;48.538;12.146;2022-07-23T13:24:51;29.50;89.30
4090;DHT22;2059;48.538;12.146;2022-07-23T13:29:52;29.70;87.80
4090;DHT22;2059;48.538;12.146;2022-07-23T13:34:55;30.00;88.50
4090;DHT22;2059;48.538;12.146;2022-07-23T13:39:57;30.10;87.00
4090;DHT22;2059;48.538;12.146;2022-07-23T13:44:59;29.90;86.30
4090;DHT22;2059;48.538;12.146;2022-07-23T13:50:03;29.90;86.30
4090;DHT22;2059;48.538;12.146;2022-07-23T13:55:06;29.70;86.70
4090;DHT22;2059;48.538;12.146;2022-07-23T14:00:09;29.40;86.80
4090;DHT22;2059;48.538;12.146;2022-07-23T14:05:13;29.50;85.80
4090;DHT22;2059;48.538;12.146;2022-07-23T14:10:16;29.60;86.00
4090;DHT22;2059;48.538;12.146;2022-07-23T14:15:19;29.80;83.00
4090;DHT22;2059;48.538;12.146;2022-07-23T14:20:22;29.90;84.80
4090;DHT22;2059;48.538;12.146;2022-07-23T14:25:24;30.00;84.30
4090;DHT22;2059;48.538;12.146;2022-07-23T14:30:26;30.10;82.30
4090;DHT22;2059;48.538;12.146;2022-07-23T14:35:29;29.90;83.90
4090;DHT22;2059;48.538;12.146;2022-07-23T14:40:30;29.70;82.90
4090;DHT22;2059;48.538;12.146;2022-07-23T14:45:32;29.50;84.40
4090;DHT22;2059;48.538;12.146;2022-07-23T14:50:35;29.30;85.20
4090;DHT22;2059;48.538;12.146;2022-07-23T14:55:37;29.00;85.30
4090;DHT22;2059;48.538;12.146;2022-07-23T15:00:39;28.60;85.30
4090;DHT22;2059;48.538;12.146;2022-07-23T15:05:42;28.70;85.80
4090;DHT22;2059;48.538;12.146;2022-07-23T15:10:44;28.40;86.10
4090;DHT22;2059;48.538;12.146;2022-07-23T15:15:46;28.20;86.30
4090;DHT22;2059;48.538;12.146;2022-07-23T15:20:49;28.10;86.70
4090;DHT22;2059;48.538;12.146;2022-07-23T15:30:57;26.10;93.50
4090;DHT22;2059;48.538;12.146;2022-07-23T15:36:00;25.40;99.90
4090;DHT22;2059;48.538;12.146;2022-07-23T15:41:02;25.40;99.90
4090;DHT22;2059;48.538;12.146;2022-07-23T15:46:05;25.80;99.90
4090;DHT22;2059;48.538;12.146;2022-07-23T15:51:09;26.20;99.90
4090;DHT22;2059;48.538;12.146;2022-07-23T15:56:11;26.50;99.30
4090;DHT22;2059;48.538;12.146;2022-07-23T16:01:13;26.90;99.90
4090;DHT22;2059;48.538;12.146;2022-07-23T16:06:16;27.40;99.40
4090;DHT22;2059;48.538;12.146;2022-07-23T16:11:18;28.20;98.30
4090;DHT22;2059;48.538;12.146;2022-07-23T16:16:19;28.00;98.30
4090;DHT22;2059;48.538;12.146;2022-07-23T16:21:24;27.60;99.10
4090;DHT22;2059;48.538;12.146;2022-07-23T16:26:26;27.70;98.10
4090;DHT22;2059;48.538;12.146;2022-07-23T16:31:28;27.50;98.60
4090;DHT22;2059;48.538;12.146;2022-07-23T16:36:32;27.10;98.80
4090;DHT22;2059;48.538;12.146;2022-07-23T16:41:35;26.90;97.70
4090;DHT22;2059;48.538;12.146;2022-07-23T16:46:37;26.80;97.00
4090;DHT22;2059;48.538;12.146;2022-07-23T16:51:40;26.30;99.20
4090;DHT22;2059;48.538;12.146;2022-07-23T16:56:42;26.00;98.10
4090;DHT22;2059;48.538;12.146;2022-07-23T17:01:43;25.60;99.50
4090;DHT22;2059;48.538;12.146;2022-07-23T17:06:46;25.30;99.90
4090;DHT22;2059;48.538;12.146;2022-07-23T17:11:48;25.70;99.90
4090;DHT22;2059;48.538;12.146;2022-07-23T17:16:50;25.70;99.90
4090;DHT22;2059;48.538;12.146;2022-07-23T17:21:53;25.70;99.90
4090;DHT22;2059;48.538;12.146;2022-07-23T17:26:55;25.50;99.90
4090;DHT22;2059;48.538;12.146;2022-07-23T17:31:57;25.30;99.90
4090;DHT22;2059;48.538;12.146;2022-07-23T17:37:00;25.20;99.90
4090;DHT22;2059;48.538;12.146;2022-07-23T17:42:02;25.30;99.90
4090;DHT22;2059;48.538;12.146;2022-07-23T17:47:04;25.50;99.90
4090;DHT22;2059;48.538;12.146;2022-07-23T17:52:07;25.40;99.90
4090;DHT22;2059;48.538;12.146;2022-07-23T17:57:09;25.50;99.90
4090;DHT22;2059;48.538;12.146;2022-07-23T18:02:12;25.50;99.90
4090;DHT22;2059;48.538;12.146;2022-07-23T18:07:15;25.40;99.90
4090;DHT22;2059;48.538;12.146;2022-07-23T18:12:17;25.30;99.90
4090;DHT22;2059;48.538;12.146;2022-07-23T18:17:19;25.10;99.90
4090;DHT22;2059;48.538;12.146;2022-07-23T18:22:22;25.00;99.90
4090;DHT22;2059;48.538;12.146;2022-07-23T18:27:24;24.90;99.90
4090;DHT22;2059;48.538;12.146;2022-07-23T18:32:26;24.90;99.90
4090;DHT22;2059;48.538;12.146;2022-07-23T18:37:29;24.70;99.90
4090;DHT22;2059;48.538;12.146;2022-07-23T18:42:30;24.60;99.90
4090;DHT22;2059;48.538;12.146;2022-07-23T18:47:32;24.60;99.90
4090;DHT22;2059;48.538;12.146;2022-07-23T18:52:36;24.60;99.90
4090;DHT22;2059;48.538;12.146;2022-07-23T18:57:37;24.60;99.90
4090;DHT22;2059;48.538;12.146;2022-07-23T19:02:39;24.40;99.90
4090;DHT22;2059;48.538;12.146;2022-07-23T19:07:42;24.40;99.90
4090;DHT22;2059;48.538;12.146;2022-07-23T19:12:44;24.30;99.90
4090;DHT22;2059;48.538;12.146;2022-07-23T19:17:46;24.30;99.90
4090;DHT22;2059;48.538;12.146;2022-07-23T19:22:49;24.20;99.90
4090;DHT22;2059;48.538;12.146;2022-07-23T19:27:51;24.20;99.90
4090;DHT22;2059;48.538;12.146;2022-07-23T19:32:53;24.00;99.90
4090;DHT22;2059;48.538;12.146;2022-07-23T19:37:56;24.10;99.90
4090;DHT22;2059;48.538;12.146;2022-07-23T19:42:57;24.00;99.90
4090;DHT22;2059;48.538;12.146;2022-07-23T19:47:59;23.90;99.90
4090;DHT22;2059;48.538;12.146;2022-07-23T19:53:03;23.90;99.90
4090;DHT22;2059;48.538;12.146;2022-07-23T19:58:05;24.00;99.90
4090;DHT22;2059;48.538;12.146;2022-07-23T20:03:07;23.90;99.90
4090;DHT22;2059;48.538;12.146;2022-07-23T20:08:10;23.80;99.90
4090;DHT22;2059;48.538;12.146;2022-07-23T20:13:11;23.60;99.90
4090;DHT22;2059;48.538;12.146;2022-07-23T20:18:14;23.50;99.90
4090;DHT22;2059;48.538;12.146;2022-07-23T20:23:17;23.50;99.90
4090;DHT22;2059;48.538;12.146;2022-07-23T20:28:20;23.50;99.90
4090;DHT22;2059;48.538;12.146;2022-07-23T20:33:22;23.30;99.90
4090;DHT22;2059;48.538;12.146;2022-07-23T20:38:26;23.40;99.90
4090;DHT22;2059;48.538;12.146;2022-07-23T20:43:27;23.40;99.90
4090;DHT22;2059;48.538;12.146;2022-07-23T20:48:29;23.40;99.90
4090;DHT22;2059;48.538;12.146;2022-07-23T20:53:32;23.40;99.90
4090;DHT22;2059;48.538;12.146;2022-07-23T20:58:34;23.40;99.90
4090;DHT22;2059;48.538;12.146;2022-07-23T21:03:36;23.20;99.90
4090;DHT22;2059;48.538;12.146;2022-07-23T21:08:39;23.30;99.90
4090;DHT22;2059;48.538;12.146;2022-07-23T21:13:41;23.30;99.90
4090;DHT22;2059;48.538;12.146;2022-07-23T21:18:43;23.20;99.90
4090;DHT22;2059;48.538;12.146;2022-07-23T21:23:47;22.90;99.90
4090;DHT22;2059;48.538;12.146;2022-07-23T21:28:50;23.00;99.90
4090;DHT22;2059;48.538;12.146;2022-07-23T21:33:52;22.90;99.90
4090;DHT22;2059;48.538;12.146;2022-07-23T21:38:55;22.80;99.90
4090;DHT22;2059;48.538;12.146;2022-07-23T21:43:57;22.90;99.90
4090;DHT22;2059;48.538;12.146;2022-07-23T21:49:00;22.90;99.90
4090;DHT22;2059;48.538;12.146;2022-07-23T21:54:03;22.90;99.90
4090;DHT22;2059;48.538;12.146;2022-07-23T21:59:05;22.70;99.90
4090;DHT22;2059;48.538;12.146;2022-07-23T22:04:08;22.80;99.90
4090;DHT22;2059;48.538;12.146;2022-07-23T22:09:11;22.90;99.90
4090;DHT22;2059;48.538;12.146;2022-07-23T22:14:13;22.80;99.90
4090;DHT22;2059;48.538;12.146;2022-07-23T22:19:14;22.60;99.90
4090;DHT22;2059;48.538;12.146;2022-07-23T22:24:18;22.60;99.90
4090;DHT22;2059;48.538;12.146;2022-07-23T22:29:20;22.60;99.90
4090;DHT22;2059;48.538;12.146;2022-07-23T22:34:22;22.60;99.90
4090;DHT22;2059;48.538;12.146;2022-07-23T22:39:25;22.50;99.90
4090;DHT22;2059;48.538;12.146;2022-07-23T22:44:26;22.40;99.90
4090;DHT22;2059;48.538;12.146;2022-07-23T22:49:30;22.40;99.90
4090;DHT22;2059;48.538;12.146;2022-07-23T22:54:33;22.30;99.90
4090;DHT22;2059;48.538;12.146;2022-07-23T22:59:35;22.30;99.90
4090;DHT22;2059;48.538;12.146;2022-07-23T23:04:36;22.20;99.90
4090;DHT22;2059;48.538;12.146;2022-07-23T23:09:39;22.20;99.90
4090;DHT22;2059;48.538;12.146;2022-07-23T23:14:41;22.00;99.90
4090;DHT22;2059;48.538;12.146;2022-07-23T23:19:43;22.20;99.90
4090;DHT22;2059;48.538;12.146;2022-07-23T23:24:46;22.20;99.90
4090;DHT22;2059;48.538;12.146;2022-07-23T23:29:48;22.20;99.90
4090;DHT22;2059;48.538;12.146;2022-07-23T23:34:50;22.10;99.90
4090;DHT22;2059;48.538;12.146;2022-07-23T23:39:53;22.00;99.90
4090;DHT22;2059;48.538;12.146;2022-07-23T23:44:55;22.00;99.90
4090;DHT22;2059;48.538;12.146;2022-07-23T23:49:57;22.00;99.90
4090;DHT22;2059;48.538;12.146;2022-07-23T23:55:00;22.00;99.90
